THA992 VTBS-ZULS
Flight info
| Callsign | THA992 |
|---|---|
| Flight time | N/A |
| Altitude | 38000 |
| Route | OLVUK1E OLVUK Y26 CMA R207 MDY DCT IIM DCT TEZ/K0882S1160 DCT LZP DCT DM |
| Aircraft | A343/H-SDE2E3FGHIJ4J5M1RWXY/LB1D1 |
Departure
| Time | 2026-05-01 14:15 |
|---|---|
| Airport | Suvarnabhumi Airport (VTBS) |
Arrival
| Time | N/A |
|---|---|
| Airport | Lhasa Gonggar International Airport (ZULS) |
| Time | Latitude | Longitude | Altitude | Speed | Heading |
|---|---|---|---|---|---|
| 2026-05-01 13:56 | 13.69107 | 100.74922 | 17 ft | 0 kts | 14° |
| 2026-05-01 13:59 | 13.69093 | 100.74918 | 19 ft | 2 kts | 13° |
| 2026-05-01 13:59 | 13.69077 | 100.74914 | 21 ft | 2 kts | 14° |
| 2026-05-01 13:59 | 13.69061 | 100.74910 | 21 ft | 2 kts | 15° |
| 2026-05-01 14:00 | 13.69045 | 100.74905 | 18 ft | 2 kts | 3° |
| 2026-05-01 14:00 | 13.69029 | 100.74908 | 20 ft | 2 kts | 305° |
| 2026-05-01 14:00 | 13.69023 | 100.74918 | 21 ft | 1 kts | 285° |
| 2026-05-01 14:00 | 13.69022 | 100.74919 | 21 ft | 0 kts | 284° |
| 2026-05-01 14:03 | 13.69024 | 100.74913 | 20 ft | 1 kts | 284° |
| 2026-05-01 14:03 | 13.69027 | 100.74898 | 20 ft | 3 kts | 284° |
| 2026-05-01 14:03 | 13.69033 | 100.74874 | 18 ft | 4 kts | 285° |
| 2026-05-01 14:04 | 13.69041 | 100.74845 | 17 ft | 4 kts | 280° |
| 2026-05-01 14:04 | 13.69042 | 100.74812 | 17 ft | 4 kts | 257° |
| 2026-05-01 14:04 | 13.69025 | 100.74792 | 18 ft | 4 kts | 219° |
| 2026-05-01 14:04 | 13.69009 | 100.74784 | 17 ft | 4 kts | 202° |
| 2026-05-01 14:05 | 13.68973 | 100.74773 | 17 ft | 4 kts | 193° |
| 2026-05-01 14:05 | 13.68941 | 100.74764 | 17 ft | 6 kts | 195° |
| 2026-05-01 14:05 | 13.68874 | 100.74746 | 17 ft | 11 kts | 195° |
| 2026-05-01 14:05 | 13.68797 | 100.74725 | 17 ft | 12 kts | 195° |
| 2026-05-01 14:06 | 13.68721 | 100.74696 | 17 ft | 11 kts | 216° |
| 2026-05-01 14:06 | 13.68708 | 100.74641 | 17 ft | 7 kts | 279° |
| 2026-05-01 14:06 | 13.68722 | 100.74588 | 17 ft | 8 kts | 285° |
| 2026-05-01 14:06 | 13.68738 | 100.74527 | 17 ft | 9 kts | 285° |
| 2026-05-01 14:07 | 13.68756 | 100.74460 | 17 ft | 10 kts | 285° |
| 2026-05-01 14:07 | 13.68774 | 100.74387 | 17 ft | 11 kts | 282° |
| 2026-05-01 14:07 | 13.68793 | 100.74310 | 17 ft | 11 kts | 284° |
| 2026-05-01 14:08 | 13.68837 | 100.74142 | 18 ft | 11 kts | 296° |
| 2026-05-01 14:08 | 13.68883 | 100.74121 | 18 ft | 7 kts | 0° |
| 2026-05-01 14:08 | 13.68934 | 100.74131 | 18 ft | 8 kts | 15° |
| 2026-05-01 14:08 | 13.68994 | 100.74148 | 17 ft | 10 kts | 15° |
| 2026-05-01 14:09 | 13.69063 | 100.74166 | 17 ft | 11 kts | 14° |
| 2026-05-01 14:09 | 13.69141 | 100.74186 | 17 ft | 12 kts | 14° |
| 2026-05-01 14:09 | 13.69227 | 100.74209 | 17 ft | 13 kts | 14° |
| 2026-05-01 14:09 | 13.69312 | 100.74232 | 17 ft | 13 kts | 14° |
| 2026-05-01 14:10 | 13.69403 | 100.74256 | 17 ft | 14 kts | 14° |
| 2026-05-01 14:10 | 13.69502 | 100.74283 | 17 ft | 15 kts | 14° |
| 2026-05-01 14:10 | 13.69606 | 100.74310 | 17 ft | 16 kts | 14° |
| 2026-05-01 14:10 | 13.69710 | 100.74337 | 17 ft | 14 kts | 14° |
| 2026-05-01 14:11 | 13.69809 | 100.74362 | 17 ft | 14 kts | 14° |
| 2026-05-01 14:11 | 13.69901 | 100.74336 | 17 ft | 2 kts | 290° |
| 2026-05-01 14:12 | 13.69901 | 100.74334 | 17 ft | 3 kts | 287° |
| 2026-05-01 14:12 | 13.69934 | 100.74220 | 17 ft | 21 kts | 285° |
| 2026-05-01 14:13 | 13.69963 | 100.74104 | 17 ft | 16 kts | 284° |
| 2026-05-01 14:13 | 13.69983 | 100.74026 | 17 ft | 17 kts | 284° |
| 2026-05-01 14:13 | 13.70000 | 100.73883 | 18 ft | 12 kts | 251° |
| 2026-05-01 14:13 | 13.69943 | 100.73828 | 18 ft | 12 kts | 201° |
| 2026-05-01 14:14 | 13.69860 | 100.73805 | 17 ft | 13 kts | 193° |
| 2026-05-01 14:14 | 13.69733 | 100.73773 | 17 ft | 35 kts | 194° |
| 2026-05-01 14:14 | 13.69298 | 100.73657 | 19 ft | 92 kts | 194° |
| 2026-05-01 14:14 | 13.68518 | 100.73452 | 16 ft | 138 kts | 194° |
| 2026-05-01 14:15 | 13.67480 | 100.73182 | 210 ft | 160 kts | 194° |
| 2026-05-01 14:15 | 13.66374 | 100.72895 | 602 ft | 173 kts | 193° |
| 2026-05-01 14:15 | 13.65192 | 100.72606 | 1182 ft | 175 kts | 192° |
| 2026-05-01 14:15 | 13.64006 | 100.72329 | 1831 ft | 179 kts | 192° |
| 2026-05-01 14:16 | 13.62737 | 100.72030 | 2290 ft | 192 kts | 192° |
| 2026-05-01 14:16 | 13.61429 | 100.71721 | 2968 ft | 193 kts | 192° |
| 2026-05-01 14:16 | 13.60116 | 100.71411 | 3635 ft | 195 kts | 193° |
| 2026-05-01 14:16 | 13.58783 | 100.71096 | 4269 ft | 198 kts | 193° |
| 2026-05-01 14:17 | 13.57427 | 100.70776 | 4902 ft | 201 kts | 193° |
| 2026-05-01 14:17 | 13.56082 | 100.70416 | 5510 ft | 204 kts | 198° |
| 2026-05-01 14:17 | 13.54811 | 100.69746 | 6121 ft | 209 kts | 215° |
| 2026-05-01 14:17 | 13.53738 | 100.68606 | 6402 ft | 239 kts | 236° |
| 2026-05-01 14:18 | 13.53117 | 100.66929 | 6742 ft | 265 kts | 260° |
| 2026-05-01 14:18 | 13.53257 | 100.65002 | 7378 ft | 279 kts | 285° |
| 2026-05-01 14:18 | 13.53920 | 100.63107 | 8124 ft | 284 kts | 286° |
| 2026-05-01 14:18 | 13.54307 | 100.61814 | 8654 ft | 287 kts | 284° |
| 2026-05-01 14:19 | 13.54975 | 100.59859 | 9395 ft | 294 kts | 295° |
| 2026-05-01 14:19 | 13.56253 | 100.58206 | 9844 ft | 301 kts | 321° |
| 2026-05-01 14:19 | 13.58149 | 100.57295 | 9988 ft | 304 kts | 349° |
| 2026-05-01 14:19 | 13.60951 | 100.57212 | 9999 ft | 306 kts | 2° |
| 2026-05-01 14:20 | 13.63085 | 100.57307 | 10000 ft | 308 kts | 2° |
| 2026-05-01 14:20 | 13.66646 | 100.57438 | 9998 ft | 309 kts | 1° |
| 2026-05-01 14:20 | 13.69537 | 100.57531 | 10202 ft | 316 kts | 1° |
| 2026-05-01 14:21 | 13.71023 | 100.57572 | 10378 ft | 329 kts | 1° |
| 2026-05-01 14:21 | 13.73383 | 100.57636 | 10646 ft | 349 kts | 1° |
| 2026-05-01 14:21 | 13.75876 | 100.57688 | 10920 ft | 367 kts | 359° |
| 2026-05-01 14:22 | 13.80762 | 100.56011 | 11856 ft | 381 kts | 327° |
| 2026-05-01 14:22 | 13.83772 | 100.54090 | 12606 ft | 388 kts | 327° |
| 2026-05-01 14:22 | 13.85325 | 100.53099 | 13010 ft | 391 kts | 327° |
| 2026-05-01 14:22 | 13.88411 | 100.51142 | 13779 ft | 396 kts | 327° |
| 2026-05-01 14:23 | 13.89969 | 100.50158 | 14117 ft | 398 kts | 327° |
| 2026-05-01 14:23 | 13.92336 | 100.48666 | 14673 ft | 401 kts | 327° |
| 2026-05-01 14:23 | 13.94821 | 100.47328 | 15212 ft | 405 kts | 338° |
| 2026-05-01 14:23 | 13.97495 | 100.46397 | 15774 ft | 408 kts | 342° |
| 2026-05-01 14:24 | 14.00220 | 100.45545 | 16336 ft | 411 kts | 342° |
| 2026-05-01 14:24 | 14.03861 | 100.44405 | 17081 ft | 415 kts | 342° |
| 2026-05-01 14:24 | 14.05732 | 100.43816 | 17462 ft | 417 kts | 342° |
| 2026-05-01 14:24 | 14.08516 | 100.42936 | 18048 ft | 420 kts | 342° |
| 2026-05-01 14:25 | 14.11280 | 100.42061 | 18550 ft | 423 kts | 342° |
| 2026-05-01 14:25 | 14.14100 | 100.41167 | 19060 ft | 425 kts | 342° |
| 2026-05-01 14:25 | 14.16939 | 100.40269 | 19566 ft | 428 kts | 343° |
| 2026-05-01 14:25 | 14.19802 | 100.39405 | 20038 ft | 431 kts | 344° |
| 2026-05-01 14:26 | 14.22688 | 100.38534 | 20499 ft | 433 kts | 343° |
| 2026-05-01 14:26 | 14.28495 | 100.36731 | 21395 ft | 438 kts | 343° |
| 2026-05-01 14:26 | 14.31419 | 100.35810 | 21853 ft | 441 kts | 343° |
| 2026-05-01 14:27 | 14.34318 | 100.34894 | 22287 ft | 443 kts | 343° |
| 2026-05-01 14:27 | 14.37272 | 100.33959 | 22718 ft | 446 kts | 342° |
| 2026-05-01 14:27 | 14.40246 | 100.33015 | 23142 ft | 448 kts | 342° |
| 2026-05-01 14:28 | 14.46215 | 100.31048 | 23864 ft | 452 kts | 338° |
| 2026-05-01 14:28 | 14.49086 | 100.29720 | 24240 ft | 453 kts | 334° |
| 2026-05-01 14:28 | 14.51922 | 100.28292 | 24614 ft | 454 kts | 333° |
| 2026-05-01 14:28 | 14.54764 | 100.26855 | 24965 ft | 456 kts | 333° |
| 2026-05-01 14:29 | 14.57618 | 100.25413 | 25318 ft | 458 kts | 333° |
| 2026-05-01 14:29 | 14.60488 | 100.23964 | 25664 ft | 460 kts | 333° |
| 2026-05-01 14:30 | 14.69323 | 100.20048 | 26706 ft | 467 kts | 341° |
| 2026-05-01 14:30 | 14.72428 | 100.19022 | 27033 ft | 470 kts | 341° |
| 2026-05-01 14:30 | 14.75562 | 100.18030 | 27360 ft | 472 kts | 342° |
| 2026-05-01 14:31 | 14.81863 | 100.16026 | 28014 ft | 476 kts | 341° |
| 2026-05-01 14:31 | 14.85026 | 100.14996 | 28336 ft | 477 kts | 341° |
| 2026-05-01 14:31 | 14.88195 | 100.13952 | 28642 ft | 479 kts | 341° |
| 2026-05-01 14:31 | 14.91332 | 100.12911 | 28955 ft | 481 kts | 340° |
| 2026-05-01 14:32 | 14.94524 | 100.11847 | 29245 ft | 483 kts | 340° |
| 2026-05-01 14:32 | 14.97726 | 100.10779 | 29531 ft | 484 kts | 340° |
| 2026-05-01 14:32 | 15.00950 | 100.09703 | 29817 ft | 486 kts | 340° |
| 2026-05-01 14:32 | 15.04181 | 100.08630 | 30068 ft | 488 kts | 340° |
| 2026-05-01 14:33 | 15.07377 | 100.07567 | 30357 ft | 488 kts | 340° |
| 2026-05-01 14:33 | 15.10624 | 100.06485 | 30675 ft | 487 kts | 340° |
| 2026-05-01 14:33 | 15.13866 | 100.05404 | 30968 ft | 487 kts | 340° |
| 2026-05-01 14:33 | 15.17051 | 100.04343 | 31265 ft | 486 kts | 340° |
| 2026-05-01 14:34 | 15.20273 | 100.03269 | 31561 ft | 486 kts | 340° |
| 2026-05-01 14:34 | 15.23505 | 100.02193 | 31849 ft | 486 kts | 340° |
| 2026-05-01 14:34 | 15.26723 | 100.01121 | 32145 ft | 485 kts | 340° |
| 2026-05-01 14:34 | 15.29940 | 100.00048 | 32420 ft | 485 kts | 340° |
| 2026-05-01 14:35 | 15.33118 | 99.98989 | 32695 ft | 484 kts | 340° |
| 2026-05-01 14:35 | 15.36326 | 99.97919 | 32979 ft | 484 kts | 340° |
| 2026-05-01 14:35 | 15.39526 | 99.96851 | 33242 ft | 483 kts | 340° |
| 2026-05-01 14:35 | 15.42725 | 99.95784 | 33504 ft | 483 kts | 340° |
| 2026-05-01 14:36 | 15.45939 | 99.94710 | 33578 ft | 487 kts | 340° |
| 2026-05-01 14:36 | 15.49177 | 99.93627 | 33778 ft | 488 kts | 340° |
| 2026-05-01 14:36 | 15.52421 | 99.92542 | 34027 ft | 487 kts | 340° |
| 2026-05-01 14:36 | 15.55606 | 99.91475 | 34237 ft | 487 kts | 340° |
| 2026-05-01 14:37 | 15.58843 | 99.90391 | 34444 ft | 487 kts | 340° |
| 2026-05-01 14:37 | 15.62075 | 99.89307 | 34631 ft | 487 kts | 340° |
| 2026-05-01 14:37 | 15.65268 | 99.88235 | 34824 ft | 487 kts | 340° |
| 2026-05-01 14:37 | 15.68501 | 99.87150 | 35023 ft | 487 kts | 340° |
| 2026-05-01 14:38 | 15.71719 | 99.86069 | 35199 ft | 487 kts | 340° |
| 2026-05-01 14:38 | 15.74941 | 99.84987 | 35379 ft | 487 kts | 340° |
| 2026-05-01 14:38 | 15.78171 | 99.83902 | 35559 ft | 487 kts | 340° |
| 2026-05-01 14:39 | 15.84661 | 99.81719 | 35700 ft | 492 kts | 340° |
| 2026-05-01 14:39 | 15.87926 | 99.80621 | 35877 ft | 492 kts | 340° |
| 2026-05-01 14:39 | 15.91154 | 99.79536 | 36077 ft | 491 kts | 340° |
| 2026-05-01 14:39 | 15.94407 | 99.78442 | 36251 ft | 491 kts | 340° |
| 2026-05-01 14:40 | 15.97661 | 99.77347 | 36428 ft | 491 kts | 340° |
| 2026-05-01 14:40 | 16.00922 | 99.76249 | 36579 ft | 491 kts | 340° |
| 2026-05-01 14:40 | 16.04188 | 99.75149 | 36741 ft | 491 kts | 340° |
| 2026-05-01 14:40 | 16.07408 | 99.74064 | 36896 ft | 491 kts | 340° |
| 2026-05-01 14:41 | 16.10672 | 99.72963 | 37066 ft | 491 kts | 340° |
| 2026-05-01 14:41 | 16.13921 | 99.71868 | 37222 ft | 491 kts | 339° |
| 2026-05-01 14:41 | 16.17179 | 99.70769 | 37387 ft | 491 kts | 339° |
| 2026-05-01 14:41 | 16.20401 | 99.69682 | 37536 ft | 491 kts | 339° |
| 2026-05-01 14:42 | 16.23657 | 99.68583 | 37688 ft | 491 kts | 339° |
| 2026-05-01 14:42 | 16.26916 | 99.67483 | 37823 ft | 491 kts | 339° |
| 2026-05-01 14:42 | 16.30180 | 99.66380 | 37939 ft | 492 kts | 339° |
| 2026-05-01 14:43 | 16.36679 | 99.64187 | 37954 ft | 492 kts | 340° |
| 2026-05-01 14:43 | 16.43213 | 99.61984 | 37951 ft | 491 kts | 339° |
| 2026-05-01 14:44 | 16.49674 | 99.59800 | 37954 ft | 491 kts | 339° |
| 2026-05-01 14:44 | 16.59420 | 99.56505 | 37948 ft | 488 kts | 339° |
| 2026-05-01 14:45 | 16.69110 | 99.53226 | 37946 ft | 488 kts | 339° |
| 2026-05-01 14:46 | 16.75564 | 99.51045 | 37949 ft | 489 kts | 339° |
| 2026-05-01 14:46 | 16.85283 | 99.47749 | 37950 ft | 488 kts | 338° |
| 2026-05-01 14:47 | 16.91713 | 99.45569 | 37950 ft | 485 kts | 338° |
| 2026-05-01 14:48 | 17.01344 | 99.42297 | 37945 ft | 486 kts | 338° |
| 2026-05-01 14:48 | 17.10977 | 99.39022 | 37945 ft | 486 kts | 338° |
| 2026-05-01 14:49 | 17.23812 | 99.34656 | 37952 ft | 484 kts | 338° |
| 2026-05-01 14:50 | 17.36607 | 99.30295 | 37953 ft | 484 kts | 338° |
| 2026-05-01 14:51 | 17.46204 | 99.27021 | 37955 ft | 484 kts | 338° |
| 2026-05-01 14:52 | 17.56031 | 99.24455 | 37960 ft | 487 kts | 344° |
| 2026-05-01 14:53 | 17.65936 | 99.22134 | 37967 ft | 486 kts | 343° |
| 2026-05-01 14:53 | 17.72537 | 99.20500 | 37973 ft | 486 kts | 343° |
| 2026-05-01 14:54 | 17.79136 | 99.18841 | 37961 ft | 486 kts | 343° |
| 2026-05-01 14:54 | 17.85688 | 99.17187 | 37970 ft | 487 kts | 343° |
| 2026-05-01 14:55 | 17.92293 | 99.15524 | 37970 ft | 486 kts | 343° |
| 2026-05-01 14:55 | 17.98838 | 99.13877 | 37967 ft | 486 kts | 343° |
| 2026-05-01 14:56 | 18.05416 | 99.12221 | 37967 ft | 486 kts | 343° |
| 2026-05-01 14:56 | 18.12006 | 99.10560 | 37965 ft | 486 kts | 343° |
| 2026-05-01 14:57 | 18.18573 | 99.08961 | 37975 ft | 486 kts | 345° |
| 2026-05-01 14:57 | 18.28535 | 99.06846 | 37970 ft | 486 kts | 347° |
| 2026-05-01 14:58 | 18.35133 | 99.05444 | 37968 ft | 485 kts | 347° |
| 2026-05-01 14:58 | 18.41759 | 99.04009 | 37970 ft | 485 kts | 346° |
| 2026-05-01 14:59 | 18.48391 | 99.02562 | 37974 ft | 485 kts | 346° |
| 2026-05-01 14:59 | 18.54968 | 99.01126 | 37980 ft | 485 kts | 346° |
| 2026-05-01 15:00 | 18.64887 | 98.98960 | 37983 ft | 485 kts | 346° |
| 2026-05-01 15:01 | 18.71511 | 98.97507 | 37986 ft | 485 kts | 346° |
| 2026-05-01 15:01 | 18.77759 | 98.94990 | 37985 ft | 478 kts | 327° |
| 2026-05-01 15:02 | 18.83062 | 98.90896 | 37986 ft | 472 kts | 319° |
| 2026-05-01 15:02 | 18.88126 | 98.86458 | 37986 ft | 471 kts | 318° |
| 2026-05-01 15:03 | 18.93116 | 98.82009 | 37990 ft | 470 kts | 318° |
| 2026-05-01 15:03 | 18.98131 | 98.77566 | 38005 ft | 468 kts | 318° |
| 2026-05-01 15:04 | 19.03117 | 98.73169 | 38013 ft | 468 kts | 319° |
| 2026-05-01 15:04 | 19.08100 | 98.68779 | 38021 ft | 466 kts | 318° |
| 2026-05-01 15:05 | 19.13086 | 98.64390 | 38019 ft | 464 kts | 318° |
| 2026-05-01 15:05 | 19.18020 | 98.60030 | 38020 ft | 464 kts | 318° |
| 2026-05-01 15:06 | 19.22981 | 98.55644 | 38028 ft | 464 kts | 318° |
| 2026-05-01 15:06 | 19.27945 | 98.51255 | 38031 ft | 464 kts | 318° |
| 2026-05-01 15:07 | 19.32898 | 98.46867 | 38031 ft | 464 kts | 318° |
| 2026-05-01 15:07 | 19.37842 | 98.42483 | 38031 ft | 464 kts | 318° |
| 2026-05-01 15:08 | 19.42780 | 98.38104 | 38029 ft | 464 kts | 318° |
| 2026-05-01 15:08 | 19.47755 | 98.33690 | 38038 ft | 464 kts | 317° |
| 2026-05-01 15:09 | 19.52684 | 98.29315 | 38027 ft | 462 kts | 317° |
| 2026-05-01 15:09 | 19.57621 | 98.24925 | 38025 ft | 462 kts | 317° |
| 2026-05-01 15:10 | 19.62530 | 98.20557 | 38020 ft | 462 kts | 317° |
| 2026-05-01 15:10 | 19.69921 | 98.13974 | 38021 ft | 462 kts | 317° |
| 2026-05-01 15:11 | 19.77290 | 98.07400 | 38024 ft | 462 kts | 317° |
| 2026-05-01 15:12 | 19.82229 | 98.03002 | 38019 ft | 462 kts | 317° |
| 2026-05-01 15:12 | 19.89640 | 97.96470 | 38018 ft | 462 kts | 318° |
| 2026-05-01 15:14 | 20.02025 | 97.85537 | 38016 ft | 463 kts | 317° |
| 2026-05-01 15:14 | 20.09463 | 97.78953 | 38015 ft | 463 kts | 317° |
| 2026-05-01 15:15 | 20.19353 | 97.70187 | 38038 ft | 463 kts | 317° |
| 2026-05-01 15:16 | 20.28439 | 97.62121 | 38039 ft | 464 kts | 317° |
| 2026-05-01 15:18 | 20.40784 | 97.51143 | 38060 ft | 463 kts | 317° |
| 2026-05-01 15:19 | 20.50659 | 97.42342 | 38060 ft | 463 kts | 317° |
| 2026-05-01 15:19 | 20.58097 | 97.35705 | 38066 ft | 463 kts | 317° |
| 2026-05-01 15:20 | 20.65488 | 97.29102 | 38089 ft | 463 kts | 317° |
| 2026-05-01 15:21 | 20.70430 | 97.24682 | 38062 ft | 459 kts | 316° |
| 2026-05-01 15:21 | 20.75262 | 97.20355 | 37969 ft | 448 kts | 316° |
| 2026-05-01 15:22 | 20.82381 | 97.13960 | 37963 ft | 447 kts | 316° |
| 2026-05-01 15:22 | 20.87162 | 97.09665 | 37959 ft | 448 kts | 316° |
| 2026-05-01 15:23 | 20.91911 | 97.05399 | 37958 ft | 447 kts | 316° |
| 2026-05-01 15:23 | 20.96682 | 97.01110 | 37957 ft | 447 kts | 316° |
| 2026-05-01 15:24 | 21.01428 | 96.96840 | 37951 ft | 447 kts | 316° |
| 2026-05-01 15:24 | 21.06194 | 96.92550 | 37946 ft | 445 kts | 316° |
| 2026-05-01 15:25 | 21.10922 | 96.88288 | 37947 ft | 444 kts | 316° |
| 2026-05-01 15:25 | 21.15630 | 96.84039 | 37973 ft | 445 kts | 316° |
| 2026-05-01 15:26 | 21.20367 | 96.79768 | 37931 ft | 441 kts | 316° |
| 2026-05-01 15:26 | 21.25014 | 96.75569 | 37932 ft | 439 kts | 316° |
| 2026-05-01 15:27 | 21.29694 | 96.71333 | 37926 ft | 439 kts | 316° |
| 2026-05-01 15:28 | 21.36699 | 96.64987 | 37922 ft | 440 kts | 316° |
| 2026-05-01 15:28 | 21.41382 | 96.60744 | 37909 ft | 440 kts | 316° |
| 2026-05-01 15:29 | 21.48392 | 96.54385 | 37916 ft | 440 kts | 316° |
| 2026-05-01 15:30 | 21.57730 | 96.45902 | 37889 ft | 440 kts | 316° |
| 2026-05-01 15:31 | 21.71791 | 96.33095 | 37883 ft | 442 kts | 315° |
| 2026-05-01 15:32 | 21.81143 | 96.24552 | 37879 ft | 443 kts | 315° |
| 2026-05-01 15:34 | 21.95269 | 96.11680 | 37864 ft | 444 kts | 317° |